This is the latest recevied weather packets stored in our database for station/object IW5CI-13. If no packets are shown the sender has not sent any weather packets the latest 10 day(s).
| Time | Temp. | Humidity | Pressure | Rain* | Wind** | Luminosity | Snow |
|---|---|---|---|---|---|---|---|
| 1777639211 | 16.67° C | 16% | 1024.4 hPa | - | - | - | - |
| 1777638008 | 15.56° C | 16% | 1024.7 hPa | - | - | - | - |
| 1777635601 | 14.44° C | 15% | 1024.8 hPa | - | - | - | - |
| 1777634397 | 15° C | 14% | 1025 hPa | - | - | - | - |
| 1777633194 | 15° C | 13% | 1025.1 hPa | - | - | - | - |
| 1777631990 | 16.11° C | 11% | 1025.2 hPa | - | - | - | - |
| 1777630787 | 17.22° C | 11% | 1025.4 hPa | - | - | - | - |
| 1777629584 | 16.67° C | 12% | 1025.4 hPa | - | - | - | - |
| 1777628380 | 16.67° C | 12% | 1025.6 hPa | - | - | - | - |
| 1777627177 | 16.67° C | 13% | 1025.9 hPa | - | - | - | - |
| 1777625973 | 15° C | 14% | 1025.9 hPa | - | - | - | - |
| 1777624770 | 13.33° C | 17% | 1026.2 hPa | - | - | - | - |
| 1777623566 | 13.33° C | 18% | 1026.1 hPa | - | - | - | - |
| 1777622363 | 13.33° C | 19% | 1026 hPa | - | - | - | - |
| 1777621159 | 12.22° C | 21% | 1025.9 hPa | - | - | - | - |
| 1777619956 | 13.33° C | 21% | 1025.9 hPa | - | - | - | - |
| 1777618752 | 11.67° C | 22% | 1026 hPa | - | - | - | - |
| 1777617549 | 12.78° C | 22% | 1025.9 hPa | - | - | - | - |
| 1777616346 | 12.22° C | 23% | 1025.9 hPa | - | - | - | - |
| 1777615142 | 12.22° C | 23% | 1025.8 hPa | - | - | - | - |
| 1777613939 | 11.67° C | 23% | 1025.8 hPa | - | - | - | - |
| 1777612735 | 11.11° C | 24% | 1025.7 hPa | - | - | - | - |
| 1777610328 | 10° C | 25% | 1025.4 hPa | - | - | - | - |
| 1777609125 | 10.56° C | 24% | 1025.1 hPa | - | - | - | - |
| 1777607922 | 10.56° C | 23% | 1024.8 hPa | - | - | - | - |
* Rain since midnight (hover to see other rain measurements)
** Current wind speed in m/s (hover to see current wind gust speed)